Time;durP1;ratioP1;P1;durP2;ratioP2;P2;SDS_P1;SDS_P2;PMS_P1;PMS_P2;Temp;Humidity;BMP_temperature;BMP_pressure;BME280_temperature;BME280_humidity;BME280_pressure;Samples;Min_cycle;Max_cycle;Signal;HPM_P1;HPM_P2
2022/09/09 00:01:33;;;;;;;3.60;1.10;;;22.80;65.20;;;;;;5043702;28;20033;-57
2022/09/09 00:03:59;;;;;;;3.10;1.10;;;22.80;65.20;;;;;;4983172;28;20093;-58
2022/09/09 00:06:28;;;;;;;5.80;1.20;;;22.80;65.20;;;;;;4981571;28;20045;-58
2022/09/09 00:09:04;;;;;;;3.70;1.27;;;22.80;65.20;;;;;;4985954;28;20065;-58
2022/09/09 00:11:56;;;;;;;5.03;1.25;;;22.80;65.20;;;;;;4966542;28;20035;-58
2022/09/09 00:14:45;;;;;;;4.82;1.20;;;22.80;65.20;;;;;;4983658;28;20158;-58
2022/09/09 00:17:26;;;;;;;4.63;1.13;;;22.80;65.20;;;;;;4983888;28;20058;-58
2022/09/09 00:20:00;;;;;;;2.60;1.10;;;22.70;66.20;;;;;;4949944;28;20047;-58
2022/09/09 00:22:27;;;;;;;3.20;1.10;;;22.80;65.20;;;;;;4978657;28;20042;-58
2022/09/09 00:24:54;;;;;;;4.20;1.38;;;22.80;65.20;;;;;;4967301;28;20046;-58
2022/09/09 00:27:27;;;;;;;3.15;1.10;;;22.80;65.20;;;;;;4983467;28;20130;-58
2022/09/09 00:29:56;;;;;;;4.78;1.00;;;22.80;65.20;;;;;;4981394;28;20440;-58
2022/09/09 00:32:22;;;;;;;6.05;1.45;;;22.70;65.10;;;;;;4965014;28;20038;-58
2022/09/09 00:34:54;;;;;;;4.13;1.30;;;22.80;65.20;;;;;;4950922;28;20065;-58
2022/09/09 00:37:21;;;;;;;4.53;1.10;;;22.70;65.20;;;;;;4980041;28;20038;-58
2022/09/09 00:39:51;;;;;;;3.55;1.10;;;22.70;65.20;;;;;;4977506;28;20108;-58
2022/09/09 00:42:26;;;;;;;3.15;1.23;;;22.70;65.20;;;;;;5021293;28;20025;-58
2022/09/09 00:44:59;;;;;;;4.05;1.10;;;22.70;65.10;;;;;;5027784;28;20346;-58
2022/09/09 00:47:34;;;;;;;4.65;1.30;;;22.70;65.20;;;;;;5045721;28;20837;-58
2022/09/09 00:50:18;;;;;;;;;;;22.70;65.20;;;;;;5042816;28;20036;-58
2022/09/09 00:52:44;;;;;;;3.80;1.33;;;22.70;65.20;;;;;;5042016;28;19920;-58
2022/09/09 00:55:36;;;;;;;3.85;1.05;;;22.70;65.20;;;;;;5042559;28;20028;-58
2022/09/09 00:58:02;;;;;;;4.57;1.10;;;22.70;65.20;;;;;;5024945;28;20021;-57
2022/09/09 01:00:32;;;;;;;5.40;1.20;;;22.60;65.20;;;;;;5044090;28;20044;-58
2022/09/09 01:03:10;;;;;;;3.75;0.95;;;22.60;65.20;;;;;;5043056;28;20040;-58
2022/09/09 01:05:46;;;;;;;3.45;1.00;;;22.60;65.20;;;;;;5041662;28;20504;-58
2022/09/09 01:08:50;;;;;;;3.70;1.00;;;22.60;65.20;;;;;;5026277;28;20032;-58
2022/09/09 01:11:47;;;;;;;2.97;1.08;;;22.60;65.20;;;;;;4970746;28;20050;-58
2022/09/09 01:14:25;;;;;;;4.25;1.10;;;22.70;65.20;;;;;;4943631;28;20054;-58
2022/09/09 01:16:54;;;;;;;4.57;1.08;;;22.60;65.20;;;;;;4952450;28;20039;-57
2022/09/09 01:19:27;;;;;;;3.38;1.10;;;22.60;65.20;;;;;;4937598;29;20077;-58
2022/09/09 01:22:01;;;;;;;4.55;1.15;;;22.60;65.20;;;;;;4954205;28;20223;-58
2022/09/09 01:24:40;;;;;;;4.17;1.23;;;22.60;65.20;;;;;;4937191;29;20042;-58
2022/09/09 01:27:06;;;;;;;3.28;1.00;;;22.60;65.30;;;;;;4938356;28;20822;-58
2022/09/09 01:29:31;;;;;;;4.30;1.05;;;22.60;65.20;;;;;;4953712;28;20050;-58
2022/09/09 01:31:58;;;;;;;4.07;1.27;;;22.60;65.30;;;;;;4952537;28;20446;-58
2022/09/09 01:34:35;;;;;;;5.35;1.38;;;22.60;65.20;;;;;;4953384;28;20571;-58
2022/09/09 01:37:06;;;;;;;5.50;1.23;;;22.60;65.20;;;;;;4936763;28;20023;-58
2022/09/09 01:39:32;;;;;;;4.40;1.35;;;22.60;65.20;;;;;;4936831;28;20039;-58
2022/09/09 01:41:58;;;;;;;3.03;1.15;;;22.60;65.30;;;;;;4950448;28;20043;-58
2022/09/09 01:44:24;;;;;;;2.50;1.00;;;22.50;65.10;;;;;;4952191;28;20093;-58
2022/09/09 01:46:50;;;;;;;4.78;1.05;;;22.50;65.10;;;;;;4977714;28;20045;-58
2022/09/09 01:49:16;;;;;;;3.33;1.13;;;22.60;65.20;;;;;;5002277;28;20029;-58
2022/09/09 01:51:41;;;;;;;3.83;1.10;;;22.60;65.20;;;;;;5033022;28;20559;-58
2022/09/09 01:54:07;;;;;;;4.40;1.10;;;22.60;65.20;;;;;;5033663;28;20043;-58
2022/09/09 01:57:22;;;;;;;1.75;1.00;;;22.60;65.30;;;;;;5029070;28;20036;-58
2022/09/09 01:59:59;;;;;;;2.93;0.90;;;22.60;65.20;;;;;;4948472;28;20714;-58
2022/09/09 02:02:36;;;;;;;3.45;1.13;;;22.60;65.20;;;;;;4937781;28;20077;-59
2022/09/09 02:05:15;;;;;;;3.83;1.17;;;22.60;65.20;;;;;;4936338;29;20071;-58
2022/09/09 02:07:45;;;;;;;3.03;0.95;;;22.50;65.20;;;;;;4952246;28;20047;-58
2022/09/09 02:10:16;;;;;;;3.90;1.00;;;22.50;65.20;;;;;;4948903;28;20401;-58
2022/09/09 02:12:45;;;;;;;3.72;1.30;;;22.60;65.20;;;;;;4952583;28;20472;-58
2022/09/09 02:15:45;;;;;;;5.15;1.30;;;22.50;65.20;;;;;;4936281;29;20062;-58
2022/09/09 02:18:12;;;;;;;3.05;1.20;;;22.50;65.20;;;;;;4935647;28;20094;-58
2022/09/09 02:20:38;;;;;;;2.30;1.00;;;22.50;65.30;;;;;;4920294;28;20074;-58
2022/09/09 02:23:03;;;;;;;4.03;1.00;;;22.50;65.20;;;;;;4920661;29;20409;-58
2022/09/09 02:25:29;;;;;;;3.58;1.10;;;22.50;65.20;;;;;;4935937;28;20529;-58
2022/09/09 02:27:55;;;;;;;3.00;0.95;;;22.50;65.20;;;;;;4949084;28;20042;-58
2022/09/09 02:30:20;;;;;;;3.15;1.00;;;22.50;65.20;;;;;;4963272;28;20045;-58
2022/09/09 02:32:47;;;;;;;2.55;1.02;;;22.50;65.20;;;;;;5027763;28;20025;-58
2022/09/09 02:35:15;;;;;;;2.65;0.90;;;22.50;65.20;;;;;;5027337;28;20055;-58
2022/09/09 02:37:42;;;;;;;4.03;1.20;;;22.50;65.20;;;;;;5044733;28;20029;-58
2022/09/09 02:40:10;;;;;;;3.78;1.20;;;22.50;65.20;;;;;;5028356;28;20167;-58
2022/09/09 02:42:40;;;;;;;5.47;1.23;;;22.50;65.20;;;;;;5047729;28;20040;-58
2022/09/09 02:45:07;;;;;;;3.35;1.08;;;22.50;65.20;;;;;;5045163;28;20082;-58
2022/09/09 02:47:37;;;;;;;2.88;1.05;;;22.50;65.30;;;;;;5029545;28;20115;-58
2022/09/09 02:50:29;;;;;;;4.60;1.30;;;22.50;65.20;;;;;;5028633;28;20036;-58
2022/09/09 02:53:10;;;;;;;3.83;1.20;;;22.50;65.30;;;;;;5043856;28;20042;-58
2022/09/09 02:55:56;;;;;;;4.40;1.20;;;22.50;65.30;;;;;;5045051;28;20025;-58
2022/09/09 02:58:22;;;;;;;3.22;1.00;;;22.40;65.20;;;;;;5044670;28;20029;-58
2022/09/09 03:00:49;;;;;;;4.72;1.10;;;22.40;65.30;;;;;;5046509;28;20052;-58
2022/09/09 03:03:16;;;;;;;4.00;1.27;;;22.40;66.40;;;;;;5027569;28;20104;-58
2022/09/09 03:05:42;;;;;;;4.32;1.02;;;22.40;65.30;;;;;;5043749;28;20024;-58
2022/09/09 03:08:07;;;;;;;3.88;1.08;;;22.40;65.30;;;;;;5044999;28;20044;-57
2022/09/09 03:10:34;;;;;;;3.03;0.85;;;22.40;65.30;;;;;;5046939;28;20037;-58
2022/09/09 03:13:00;;;;;;;3.90;1.10;;;22.40;66.30;;;;;;5045054;28;20033;-58
2022/09/09 03:15:29;;;;;;;3.15;1.00;;;22.40;65.30;;;;;;5045220;28;20112;-58
2022/09/09 03:17:56;;;;;;;1.80;0.90;;;22.40;65.30;;;;;;5045698;28;20025;-58
2022/09/09 03:20:23;;;;;;;2.83;1.08;;;22.40;65.30;;;;;;5047122;28;20061;-58
2022/09/09 03:22:49;;;;;;;4.82;1.30;;;22.40;65.30;;;;;;5046598;28;20431;-58
2022/09/09 03:25:15;;;;;;;4.68;1.20;;;22.40;65.30;;;;;;5044387;28;20040;-58
2022/09/09 03:27:40;;;;;;;2.15;0.90;;;22.30;65.20;;;;;;5046249;28;20460;-58
2022/09/09 03:30:07;;;;;;;3.63;1.15;;;22.40;65.30;;;;;;5043903;28;20150;-58
2022/09/09 03:32:32;;;;;;;4.10;1.10;;;22.40;65.30;;;;;;5045213;28;20049;-58
2022/09/09 03:34:58;;;;;;;2.53;0.90;;;22.40;65.30;;;;;;5045730;28;20189;-58
2022/09/09 03:37:24;;;;;;;2.40;0.90;;;22.40;65.30;;;;;;5046816;28;20091;-57
2022/09/09 03:39:49;;;;;;;3.30;1.00;;;22.40;65.40;;;;;;5047726;28;20503;-58
2022/09/09 03:42:18;;;;;;;3.30;1.13;;;22.40;65.40;;;;;;5044488;28;20029;-58
2022/09/09 03:44:46;;;;;;;3.47;1.08;;;22.40;65.40;;;;;;5046072;28;20409;-58
2022/09/09 03:47:13;;;;;;;2.35;1.10;;;22.30;65.30;;;;;;5044212;28;20549;-58
2022/09/09 03:49:38;;;;;;;3.13;1.15;;;22.40;65.40;;;;;;5045426;28;20036;-58
2022/09/09 03:52:04;;;;;;;3.28;1.00;;;22.30;65.40;;;;;;5044093;28;20041;-57
2022/09/09 03:54:29;;;;;;;4.03;1.08;;;22.40;65.40;;;;;;5044632;28;20029;-58
2022/09/09 03:56:55;;;;;;;3.35;1.00;;;22.30;65.40;;;;;;5045649;28;20396;-58
2022/09/09 03:59:21;;;;;;;2.78;1.02;;;22.30;65.40;;;;;;5044049;28;20489;-58
2022/09/09 04:01:46;;;;;;;2.83;0.88;;;22.30;65.40;;;;;;5043480;28;20110;-57
2022/09/09 04:04:19;;;;;;;3.90;1.10;;;22.30;65.40;;;;;;5045281;28;20025;-58
2022/09/09 04:06:50;;;;;;;3.85;1.00;;;22.30;65.40;;;;;;5046725;28;20053;-58
2022/09/09 04:09:16;;;;;;;2.75;0.80;;;22.30;65.40;;;;;;5044586;28;20025;-58
2022/09/09 04:11:42;;;;;;;2.72;1.08;;;22.30;65.40;;;;;;5045922;28;20515;-58
2022/09/09 04:14:08;;;;;;;3.00;1.10;;;22.30;65.40;;;;;;5047106;28;20519;-58
2022/09/09 04:16:37;;;;;;;2.20;0.98;;;22.30;65.40;;;;;;5027224;28;20100;-58
2022/09/09 04:19:04;;;;;;;3.03;0.90;;;22.30;65.40;;;;;;5043070;28;20073;-57
2022/09/09 04:21:30;;;;;;;3.15;1.17;;;22.30;65.40;;;;;;5044616;28;20745;-57
2022/09/09 04:23:56;;;;;;;3.63;1.10;;;22.30;65.40;;;;;;5039560;28;20045;-58
2022/09/09 04:26:21;;;;;;;2.17;0.80;;;22.30;65.40;;;;;;5046901;28;20029;-58
2022/09/09 04:28:47;;;;;;;3.63;0.85;;;22.30;65.40;;;;;;5047243;28;20032;-58
2022/09/09 04:31:17;;;;;;;2.25;0.90;;;22.30;65.40;;;;;;5046748;28;20630;-58
2022/09/09 04:33:43;;;;;;;3.03;0.90;;;22.30;65.40;;;;;;5044796;28;20037;-58
2022/09/09 04:36:09;;;;;;;4.40;1.13;;;22.30;65.40;;;;;;5043516;28;20033;-58
2022/09/09 04:38:34;;;;;;;3.47;1.10;;;22.30;65.40;;;;;;5043760;28;20039;-58
2022/09/09 04:41:01;;;;;;;3.75;1.00;;;22.20;65.40;;;;;;5046382;28;20420;-58
2022/09/09 04:43:26;;;;;;;4.85;1.20;;;22.20;66.40;;;;;;5042858;28;20456;-58
2022/09/09 04:45:52;;;;;;;3.10;1.00;;;22.30;65.50;;;;;;5043645;28;20104;-58
2022/09/09 04:48:18;;;;;;;3.28;1.05;;;22.20;65.40;;;;;;5045174;28;20029;-58
2022/09/09 04:50:44;;;;;;;3.00;1.02;;;22.20;65.40;;;;;;5042990;28;20567;-58
2022/09/09 04:53:10;;;;;;;4.10;0.98;;;22.20;65.40;;;;;;5025969;28;20025;-57
2022/09/09 04:55:35;;;;;;;3.22;1.02;;;22.20;65.40;;;;;;5044826;28;20021;-58
2022/09/09 04:58:05;;;;;;;3.78;0.98;;;22.20;65.50;;;;;;5042898;28;20036;-58
2022/09/09 05:00:31;;;;;;;2.20;0.98;;;22.20;65.50;;;;;;5042645;28;20021;-58
2022/09/09 05:02:57;;;;;;;3.65;0.93;;;22.20;65.50;;;;;;5046238;28;20025;-58
2022/09/09 05:05:22;;;;;;;2.58;1.00;;;22.30;65.50;;;;;;5044052;28;20052;-58
2022/09/09 05:07:49;;;;;;;3.45;0.90;;;22.20;65.50;;;;;;5043547;28;20025;-58
2022/09/09 05:10:15;;;;;;;3.58;0.90;;;22.20;65.50;;;;;;5043685;28;20064;-58
2022/09/09 05:12:42;;;;;;;4.28;1.20;;;22.20;65.60;;;;;;5041155;28;20025;-58
2022/09/09 05:15:09;;;;;;;4.47;1.10;;;22.30;65.60;;;;;;5023306;28;20033;-58
2022/09/09 05:17:35;;;;;;;2.92;1.00;;;22.20;65.60;;;;;;5043740;28;20082;-58
2022/09/09 05:20:02;;;;;;;2.70;1.10;;;22.20;65.80;;;;;;5043453;28;20501;-58
2022/09/09 05:22:28;;;;;;;4.90;1.10;;;22.30;65.80;;;;;;5035768;28;20029;-58
2022/09/09 05:24:54;;;;;;;8.25;1.30;;;22.30;65.60;;;;;;5036347;28;20033;-58
2022/09/09 05:27:19;;;;;;;6.10;1.35;;;22.30;66.10;;;;;;5040266;28;20098;-58
2022/09/09 05:29:46;;;;;;;6.88;1.35;;;22.30;66.20;;;;;;5038456;28;20078;-58
2022/09/09 05:32:13;;;;;;;5.47;1.30;;;22.30;66.30;;;;;;5037941;28;23271;-57
2022/09/09 05:34:39;;;;;;;7.50;1.30;;;22.30;66.40;;;;;;5038983;28;20037;-58
2022/09/09 05:37:04;;;;;;;4.20;1.35;;;22.30;66.50;;;;;;5038590;28;20035;-58
2022/09/09 05:39:30;;;;;;;8.05;1.30;;;22.30;66.70;;;;;;5045546;28;20160;-58
2022/09/09 05:41:56;;;;;;;5.22;1.20;;;22.40;66.50;;;;;;5054784;28;20564;-58
2022/09/09 05:44:23;;;;;;;5.70;1.20;;;22.30;66.70;;;;;;5045301;28;20038;-58
2022/09/09 05:46:49;;;;;;;5.28;1.13;;;22.30;66.70;;;;;;5041364;28;20036;-58
2022/09/09 05:49:15;;;;;;;5.07;1.30;;;22.30;67.00;;;;;;5042683;28;20040;-58
2022/09/09 05:51:42;;;;;;;6.80;1.40;;;22.30;67.30;;;;;;5042799;28;20076;-58
2022/09/09 05:54:08;;;;;;;5.53;1.30;;;22.30;67.10;;;;;;5044777;28;20075;-58
2022/09/09 05:56:34;;;;;;;5.90;1.35;;;22.30;66.90;;;;;;5041825;28;20332;-58
2022/09/09 05:59:00;;;;;;;6.43;1.63;;;22.30;66.80;;;;;;5042286;28;20120;-58
2022/09/09 06:01:31;;;;;;;4.63;1.40;;;22.30;67.10;;;;;;5043497;28;20079;-58
2022/09/09 06:03:56;;;;;;;5.90;1.42;;;22.30;67.00;;;;;;5045897;28;20116;-57
2022/09/09 06:06:25;;;;;;;3.58;1.20;;;22.30;67.20;;;;;;5029654;28;20108;-58
2022/09/09 06:08:51;;;;;;;9.23;1.70;;;22.30;67.20;;;;;;5045514;28;20044;-57
2022/09/09 06:11:18;;;;;;;7.00;1.35;;;22.30;67.20;;;;;;5046012;28;20041;-58
2022/09/09 06:13:44;;;;;;;5.70;1.35;;;22.30;67.20;;;;;;5029472;28;20032;-57
2022/09/09 06:16:16;;;;;;;5.80;1.25;;;22.30;67.20;;;;;;5045755;28;20397;-58
2022/09/09 06:18:42;;;;;;;5.50;1.20;;;22.30;67.10;;;;;;5045569;28;20128;-58
2022/09/09 06:21:15;;;;;;;6.70;1.40;;;22.30;67.00;;;;;;5048929;28;20585;-58
2022/09/09 06:23:41;;;;;;;5.82;1.50;;;22.30;67.00;;;;;;5043314;28;20025;-57
2022/09/09 06:26:09;;;;;;;6.05;1.30;;;22.30;67.30;;;;;;5046084;28;20017;-58
2022/09/09 06:28:35;;;;;;;5.32;1.30;;;22.30;67.10;;;;;;5046751;28;20529;-58
2022/09/09 06:31:01;;;;;;;6.50;1.40;;;22.30;67.20;;;;;;5047465;28;20052;-58
2022/09/09 06:33:30;;;;;;;6.18;1.40;;;22.30;67.10;;;;;;5046079;28;20039;-58
2022/09/09 06:35:56;;;;;;;5.13;1.45;;;22.30;67.10;;;;;;5046243;28;20024;-58
2022/09/09 06:38:23;;;;;;;4.35;1.17;;;22.30;66.80;;;;;;5047125;28;20057;-58
2022/09/09 06:40:54;;;;;;;5.28;1.25;;;22.30;67.10;;;;;;5045527;28;20044;-58
2022/09/09 06:43:20;;;;;;;5.80;1.30;;;22.30;67.20;;;;;;5045010;28;20137;-58
2022/09/09 06:45:54;;;;;;;4.25;1.50;;;22.30;67.20;;;;;;5046568;28;20109;-57
2022/09/09 06:48:19;;;;;;;4.65;1.58;;;22.30;67.00;;;;;;5046515;28;20025;-57
2022/09/09 06:50:46;;;;;;;5.97;1.70;;;22.30;67.00;;;;;;5045728;28;20064;-58
2022/09/09 06:53:11;;;;;;;4.75;1.38;;;22.30;67.10;;;;;;5044859;28;20048;-58
2022/09/09 06:55:37;;;;;;;4.15;1.13;;;22.30;67.20;;;;;;5044490;28;20532;-58
2022/09/09 06:58:07;;;;;;;4.40;1.38;;;22.20;67.10;;;;;;5049075;28;20063;-57
2022/09/09 07:00:33;;;;;;;4.70;1.20;;;22.30;67.20;;;;;;5029413;28;20622;-57
2022/09/09 07:02:59;;;;;;;4.10;1.20;;;22.30;67.00;;;;;;5046998;28;20033;-57
2022/09/09 07:05:25;;;;;;;4.07;1.35;;;22.30;67.10;;;;;;5045024;28;20025;-58
2022/09/09 07:07:51;;;;;;;5.35;1.63;;;22.30;67.20;;;;;;5046212;28;20509;-58
2022/09/09 07:10:17;;;;;;;6.38;1.20;;;22.30;67.10;;;;;;5045679;28;20037;-57
2022/09/09 07:12:43;;;;;;;5.78;1.20;;;22.30;67.30;;;;;;5044352;28;20370;-58
2022/09/09 07:15:09;;;;;;;5.43;1.27;;;22.30;67.00;;;;;;5045639;28;20029;-58
2022/09/09 07:17:35;;;;;;;3.63;1.17;;;22.20;67.00;;;;;;5027456;28;20449;-58
2022/09/09 07:20:02;;;;;;;5.28;1.23;;;22.30;67.10;;;;;;5043280;28;20127;-58
2022/09/09 07:22:28;;;;;;;4.53;1.35;;;22.30;66.90;;;;;;5047349;28;20060;-58
2022/09/09 07:24:54;;;;;;;2.67;1.10;;;22.30;66.90;;;;;;5044933;28;20056;-58
2022/09/09 07:27:19;;;;;;;3.88;1.10;;;22.30;67.10;;;;;;5042988;28;20040;-58
2022/09/09 07:29:45;;;;;;;5.15;1.30;;;22.30;67.00;;;;;;5046262;28;20029;-58
2022/09/09 07:32:11;;;;;;;4.25;1.35;;;22.30;67.10;;;;;;5044431;28;20052;-58
2022/09/09 07:34:37;;;;;;;4.05;1.23;;;22.20;67.10;;;;;;5044153;28;20033;-57
2022/09/09 07:37:02;;;;;;;4.45;1.20;;;22.20;67.10;;;;;;5047107;28;20571;-58
2022/09/09 07:39:28;;;;;;;4.35;1.13;;;22.20;67.20;;;;;;5046061;28;20063;-58
2022/09/09 07:41:54;;;;;;;3.83;1.13;;;22.20;67.20;;;;;;5044095;28;20029;-58
2022/09/09 07:44:24;;;;;;;6.10;1.50;;;22.20;67.10;;;;;;5041347;28;20445;-58
2022/09/09 07:46:50;;;;;;;3.22;1.10;;;22.20;67.20;;;;;;5044032;28;20444;-57
2022/09/09 07:49:16;;;;;;;3.92;1.38;;;22.30;67.20;;;;;;5043294;28;20032;-57
2022/09/09 07:51:43;;;;;;;3.42;1.13;;;22.20;67.10;;;;;;5042008;28;20041;-58
2022/09/09 07:54:10;;;;;;;4.20;1.23;;;22.20;67.00;;;;;;5043679;28;20025;-58
2022/09/09 07:56:37;;;;;;;6.63;1.15;;;22.20;67.10;;;;;;5043476;28;20486;-58
2022/09/09 07:59:06;;;;;;;4.93;1.48;;;22.20;67.00;;;;;;5044224;28;20033;-58
2022/09/09 08:01:42;;;;;;;4.40;1.30;;;22.20;67.10;;;;;;5045306;28;20025;-58
2022/09/09 08:04:14;;;;;;;4.78;1.33;;;22.20;66.80;;;;;;5026786;28;20036;-58
2022/09/09 08:06:41;;;;;;;4.50;1.20;;;22.20;66.80;;;;;;5046248;28;20068;-57
2022/09/09 08:09:08;;;;;;;3.58;1.20;;;22.20;66.90;;;;;;5043491;28;20044;-58
2022/09/09 08:11:33;;;;;;;4.78;1.30;;;22.20;67.00;;;;;;5043991;28;20032;-58
2022/09/09 08:13:59;;;;;;;7.75;1.20;;;22.20;67.10;;;;;;5044641;28;20374;-58
2022/09/09 08:16:27;;;;;;;5.32;1.35;;;22.20;66.90;;;;;;5042907;28;20047;-58
2022/09/09 08:18:54;;;;;;;2.90;1.10;;;22.30;66.90;;;;;;5045290;28;20056;-58
2022/09/09 08:21:23;;;;;;;3.92;1.20;;;22.30;67.00;;;;;;5045229;28;20041;-58
2022/09/09 08:23:51;;;;;;;4.88;1.35;;;22.20;67.10;;;;;;5045282;28;20116;-58
2022/09/09 08:26:28;;;;;;;3.42;1.25;;;22.20;67.10;;;;;;5044914;28;20489;-58
2022/09/09 08:28:55;;;;;;;3.42;1.02;;;22.20;67.10;;;;;;5046565;28;20578;-57
2022/09/09 08:31:31;;;;;;;4.72;1.20;;;22.20;67.20;;;;;;5043656;28;20041;-58
2022/09/09 08:33:59;;;;;;;3.78;1.20;;;22.30;67.20;;;;;;5040592;28;20087;-58
2022/09/09 08:36:26;;;;;;;4.60;1.27;;;22.30;67.00;;;;;;5044352;28;20488;-58
2022/09/09 08:38:54;;;;;;;2.90;1.30;;;22.30;67.00;;;;;;5041021;28;20071;-58
2022/09/09 08:41:58;;;;;;;3.63;1.13;;;22.30;67.00;;;;;;5043018;28;20167;-58
2022/09/09 08:44:55;;;;;;;3.83;1.20;;;22.20;67.00;;;;;;5042986;28;20028;-57
2022/09/09 08:47:47;;;;;;;3.03;1.10;;;22.20;67.00;;;;;;5026423;28;20029;-57
2022/09/09 08:50:27;;;;;;;3.08;1.00;;;22.30;67.00;;;;;;5028329;28;20723;-57
2022/09/09 08:53:04;;;;;;;3.85;1.00;;;22.30;66.90;;;;;;5027747;28;20044;-58
2022/09/09 08:55:51;;;;;;;3.53;1.10;;;22.30;66.80;;;;;;5044985;28;20028;-56
2022/09/09 08:58:29;;;;;;;3.83;1.30;;;22.30;66.80;;;;;;5040311;28;20036;-58
2022/09/09 09:01:13;;;;;;;4.63;1.10;;;22.30;66.70;;;;;;5026706;28;20484;-58
2022/09/09 09:03:50;;;;;;;3.65;1.10;;;22.30;66.80;;;;;;5042441;28;20505;-58
2022/09/09 09:06:35;;;;;;;3.30;1.02;;;22.30;66.80;;;;;;5042906;28;20033;-58
2022/09/09 09:09:31;;;;;;;4.20;1.08;;;22.30;66.80;;;;;;5040074;28;20056;-58
2022/09/09 09:12:01;;;;;;;3.42;1.25;;;22.30;66.90;;;;;;5042742;28;20397;-58
2022/09/09 09:14:30;;;;;;;4.55;1.15;;;22.30;66.90;;;;;;5025938;28;20053;-58
2022/09/09 09:17:00;;;;;;;2.10;0.90;;;22.30;66.70;;;;;;5042536;28;20051;-58
2022/09/09 09:19:26;;;;;;;2.33;1.00;;;22.30;66.70;;;;;;5027038;28;20041;-58
2022/09/09 09:22:02;;;;;;;4.63;1.38;;;22.30;66.50;;;;;;5043006;28;20028;-57
2022/09/09 09:24:42;;;;;;;4.30;1.20;;;22.30;66.70;;;;;;5044366;28;20095;-57
2022/09/09 09:27:12;;;;;;;3.50;1.20;;;22.30;66.70;;;;;;5042416;28;20056;-58
2022/09/09 09:29:38;;;;;;;3.05;1.05;;;22.30;66.70;;;;;;5043025;28;20021;-58
2022/09/09 09:32:03;;;;;;;4.20;1.15;;;22.30;66.70;;;;;;5041398;28;20567;-58
2022/09/09 09:34:29;;;;;;;3.03;1.00;;;22.30;66.70;;;;;;5043023;28;20709;-58
2022/09/09 09:36:58;;;;;;;3.47;1.08;;;22.30;66.70;;;;;;5046272;28;20021;-57
2022/09/09 09:39:25;;;;;;;4.75;1.25;;;22.40;66.40;;;;;;5029935;28;20051;-58
2022/09/09 09:41:51;;;;;;;8.50;1.02;;;22.40;66.70;;;;;;5027165;28;20028;-58
2022/09/09 09:44:28;;;;;;;4.10;1.08;;;22.50;66.80;;;;;;5045596;28;20112;-58
2022/09/09 09:47:04;;;;;;;3.28;1.20;;;22.40;66.50;;;;;;5048574;28;20044;-58
2022/09/09 09:49:32;;;;;;;3.78;1.13;;;22.50;66.70;;;;;;5046453;28;20378;-59
2022/09/09 09:52:02;;;;;;;6.47;1.40;;;22.50;66.80;;;;;;5033871;28;20508;-58
2022/09/09 09:54:38;;;;;;;6.00;1.10;;;22.60;67.10;;;;;;5029296;28;20519;-58
2022/09/09 09:57:16;;;;;;;4.13;1.30;;;22.50;67.00;;;;;;5031408;28;20147;-58
2022/09/09 09:59:42;;;;;;;3.78;1.15;;;22.50;67.00;;;;;;5031622;28;20059;-58
2022/09/09 10:02:19;;;;;;;6.53;1.38;;;22.50;67.20;;;;;;5046320;28;20112;-58
2022/09/09 10:04:45;;;;;;;4.40;1.20;;;22.50;67.30;;;;;;5029357;28;20032;-58
2022/09/09 10:07:21;;;;;;;3.35;1.40;;;22.60;67.30;;;;;;5046703;28;20036;-58
2022/09/09 10:09:51;;;;;;;3.72;1.15;;;22.60;67.30;;;;;;5049104;28;20489;-58
2022/09/09 10:12:38;;;;;;;5.40;1.27;;;22.60;67.30;;;;;;5029062;28;20059;-58
2022/09/09 10:15:26;;;;;;;3.67;1.00;;;22.70;67.30;;;;;;5049240;28;20801;-58
2022/09/09 10:18:13;;;;;;;5.53;1.35;;;22.70;67.70;;;;;;5012559;28;20060;-58
2022/09/09 10:20:54;;;;;;;4.75;1.13;;;22.70;67.30;;;;;;5044107;28;20046;-58
2022/09/09 10:23:53;;;;;;;4.88;1.38;;;22.70;67.40;;;;;;5030399;28;20029;-58
2022/09/09 10:26:26;;;;;;;6.88;1.55;;;22.70;67.40;;;;;;5023875;28;20590;-58
2022/09/09 10:29:05;;;;;;;5.47;1.20;;;22.70;67.40;;;;;;5031017;28;20481;-58
2022/09/09 10:32:03;;;;;;;4.00;1.00;;;22.80;67.30;;;;;;5046145;28;20040;-58
2022/09/09 10:34:37;;;;;;;11.68;1.42;;;22.80;67.20;;;;;;5034254;28;20041;-58
2022/09/09 10:37:04;;;;;;;;;;;22.80;67.10;;;;;;5027023;28;20051;-59
2022/09/09 10:39:42;;;;;;;6.10;1.70;;;22.80;67.20;;;;;;5044121;28;19909;-58
2022/09/09 10:42:14;;;;;;;9.27;1.60;;;22.80;67.10;;;;;;5026697;28;20056;-59
2022/09/09 10:44:40;;;;;;;17.13;1.98;;;22.80;67.40;;;;;;5047149;28;20040;-59
2022/09/09 10:47:09;;;;;;;12.80;1.55;;;22.90;67.10;;;;;;5043349;28;20092;-59
2022/09/09 10:49:49;;;;;;;12.25;1.75;;;22.90;67.00;;;;;;5044297;28;20970;-59
2022/09/09 10:52:36;;;;;;;14.05;1.73;;;22.80;66.90;;;;;;5047346;28;20040;-58
2022/09/09 10:55:11;;;;;;;10.40;1.98;;;22.90;67.00;;;;;;5044119;28;20029;-59
2022/09/09 10:57:42;;;;;;;8.63;1.95;;;22.90;66.80;;;;;;5045845;28;20053;-58
2022/09/09 11:00:21;;;;;;;8.27;1.75;;;22.90;66.60;;;;;;5026249;28;20029;-59
2022/09/09 11:02:58;;;;;;;14.45;2.00;;;22.90;66.70;;;;;;5046156;28;20090;-59
2022/09/09 11:05:40;;;;;;;11.55;2.03;;;22.90;66.50;;;;;;5027189;28;20425;-59
2022/09/09 11:08:13;;;;;;;11.07;1.88;;;22.90;66.60;;;;;;5028472;28;20580;-59
2022/09/09 11:11:05;;;;;;;11.13;2.00;;;22.90;66.60;;;;;;5027457;28;20498;-59
2022/09/09 11:13:40;;;;;;;10.52;1.90;;;22.90;66.60;;;;;;4984533;28;20046;-59
2022/09/09 11:16:34;;;;;;;11.45;2.03;;;22.90;66.30;;;;;;4985192;28;20040;-59
2022/09/09 11:19:14;;;;;;;11.30;2.15;;;22.90;66.20;;;;;;4980048;28;20073;-58
2022/09/09 11:21:47;;;;;;;11.07;2.28;;;22.90;66.20;;;;;;4983914;28;20050;-58
2022/09/09 11:24:27;;;;;;;14.13;2.47;;;23.00;66.00;;;;;;4967664;28;20038;-59
2022/09/09 11:27:00;;;;;;;14.05;2.40;;;23.00;65.60;;;;;;4980423;28;20108;-59
2022/09/09 11:29:47;;;;;;;12.80;2.30;;;23.10;65.60;;;;;;4970158;28;20040;-59
2022/09/09 11:32:27;;;;;;;15.18;2.47;;;23.00;65.50;;;;;;4984817;28;20542;-59
2022/09/09 11:35:17;;;;;;;15.32;2.58;;;23.10;65.60;;;;;;4985307;28;20398;-59
2022/09/09 11:37:42;;;;;;;13.88;2.53;;;23.10;65.60;;;;;;4985457;28;20050;-59
2022/09/09 11:40:27;;;;;;;20.20;3.05;;;23.10;65.70;;;;;;4985291;28;20030;-59
2022/09/09 11:43:09;;;;;;;15.50;3.03;;;23.10;65.50;;;;;;4985695;28;20490;-59
2022/09/09 11:45:35;;;;;;;17.73;3.40;;;23.10;65.60;;;;;;4986850;28;20042;-59
2022/09/09 11:48:01;;;;;;;13.77;3.03;;;23.10;66.20;;;;;;4987163;28;20441;-59
2022/09/09 11:50:37;;;;;;;16.95;2.83;;;23.00;66.30;;;;;;5007980;28;20048;-58
2022/09/09 11:53:22;;;;;;;15.55;3.25;;;23.00;67.00;;;;;;5026324;28;20021;-59
2022/09/09 11:56:00;;;;;;;13.82;2.83;;;23.00;67.20;;;;;;5029498;28;20018;-58
2022/09/09 11:58:26;;;;;;;11.85;2.55;;;23.00;66.80;;;;;;5041204;28;20702;-59
2022/09/09 12:00:52;;;;;;;11.15;2.60;;;23.00;66.40;;;;;;5042676;28;20041;-59
2022/09/09 12:03:39;;;;;;;12.38;2.67;;;23.00;66.00;;;;;;5037612;28;20505;-59
2022/09/09 12:06:19;;;;;;;14.93;3.13;;;22.90;65.40;;;;;;5045112;28;20039;-58
2022/09/09 12:08:49;;;;;;;12.60;2.70;;;22.90;65.50;;;;;;5008423;28;20033;-59
2022/09/09 12:11:27;;;;;;;11.68;2.35;;;22.90;65.80;;;;;;5023057;28;20029;-59
2022/09/09 12:14:00;;;;;;;11.70;2.35;;;22.90;65.70;;;;;;5046453;28;20905;-60
2022/09/09 12:16:37;;;;;;;10.40;2.20;;;23.00;65.40;;;;;;5043383;28;20037;-59
2022/09/09 12:19:11;;;;;;;13.68;2.35;;;23.10;65.10;;;;;;5023730;28;20049;-59
2022/09/09 12:21:49;;;;;;;11.35;2.58;;;23.20;65.30;;;;;;5028470;28;20399;-59
2022/09/09 12:24:41;;;;;;;12.85;2.50;;;23.20;65.10;;;;;;5022799;28;20172;-59
2022/09/09 12:27:16;;;;;;;7.80;2.33;;;23.20;65.10;;;;;;5022893;28;20477;-59
2022/09/09 12:30:01;;;;;;;11.00;2.42;;;23.20;65.00;;;;;;5023345;28;20029;-59
2022/09/09 12:32:28;;;;;;;;;;;23.20;65.00;;;;;;5025977;28;20029;-60
2022/09/09 12:34:59;;;;;;;10.88;2.50;;;23.20;65.00;;;;;;5025786;28;19913;-59
2022/09/09 12:37:53;;;;;;;11.27;2.40;;;23.20;64.80;;;;;;5022216;28;20056;-59
2022/09/09 12:40:24;;;;;;;10.57;2.53;;;23.20;64.90;;;;;;5026099;28;20572;-59
2022/09/09 12:42:50;;;;;;;10.13;2.08;;;23.30;64.80;;;;;;5024005;28;20020;-59
2022/09/09 12:45:16;;;;;;;15.68;2.72;;;23.40;64.80;;;;;;5024953;28;20108;-59
2022/09/09 12:47:46;;;;;;;13.05;2.70;;;23.50;64.70;;;;;;5028380;28;20025;-59
2022/09/09 12:50:27;;;;;;;13.93;2.38;;;23.50;64.60;;;;;;5029739;28;20021;-59
2022/09/09 12:52:55;;;;;;;9.43;2.10;;;23.50;64.60;;;;;;5008053;28;20088;-59
2022/09/09 12:55:27;;;;;;;10.70;2.13;;;23.50;64.40;;;;;;5022754;28;20025;-60
2022/09/09 12:57:53;;;;;;;10.60;2.10;;;23.50;64.30;;;;;;5024815;28;20448;-59
2022/09/09 13:00:23;;;;;;;12.07;2.55;;;23.50;64.50;;;;;;5026346;28;20040;-59
2022/09/09 13:02:56;;;;;;;8.63;2.10;;;23.50;64.30;;;;;;5026556;28;20084;-59
2022/09/09 13:05:27;;;;;;;13.05;2.38;;;23.50;64.20;;;;;;5028832;28;20025;-59
2022/09/09 13:08:02;;;;;;;9.23;2.20;;;23.50;64.10;;;;;;5023884;28;20048;-59